createdAt,value
2019-03-13T00:00:01.085Z,14
2019-03-13T00:01:01.084Z,15
2019-03-13T00:02:01.110Z,17
2019-03-13T00:06:01.088Z,15
2019-03-13T00:09:01.084Z,16
2019-03-13T00:10:01.085Z,17
2019-03-13T00:12:01.127Z,16
2019-03-13T00:13:01.088Z,15
2019-03-13T00:15:01.087Z,14
2019-03-13T00:16:01.086Z,15
2019-03-13T00:17:01.088Z,14
2019-03-13T00:18:01.087Z,16
2019-03-13T00:20:01.094Z,18
2019-03-13T00:21:01.088Z,17
2019-03-13T00:22:01.087Z,18
2019-03-13T00:23:01.089Z,19
2019-03-13T00:24:01.092Z,17
2019-03-13T00:26:01.091Z,19
2019-03-13T00:27:01.093Z,18
2019-03-13T00:28:01.138Z,17
2019-03-13T00:29:01.094Z,19
2019-03-13T00:30:01.108Z,19
2019-03-13T00:31:01.088Z,18
2019-03-13T00:32:01.090Z,19
2019-03-13T00:33:01.089Z,17
2019-03-13T00:35:01.115Z,16
2019-03-13T00:37:01.093Z,15
2019-03-13T00:38:01.090Z,16
2019-03-13T00:39:01.116Z,15
2019-03-13T00:41:01.097Z,13
2019-03-13T00:43:01.088Z,14
2019-03-13T00:44:01.116Z,15
2019-03-13T00:45:01.095Z,15
2019-03-13T00:46:01.092Z,16
2019-03-13T00:47:01.091Z,17
2019-03-13T00:50:01.118Z,18
2019-03-13T00:52:01.117Z,19
2019-03-13T00:53:01.090Z,18
2019-03-13T00:54:01.090Z,19
2019-03-13T00:55:01.090Z,18
2019-03-13T00:56:01.090Z,17
2019-03-13T00:57:01.118Z,16
2019-03-13T00:58:01.090Z,18
2019-03-13T00:59:01.103Z,20
2019-03-13T01:00:01.094Z,19
2019-03-13T01:02:01.127Z,22
2019-03-13T01:03:01.095Z,23
2019-03-13T01:04:01.092Z,20
2019-03-13T01:05:01.092Z,21
2019-03-13T01:06:01.092Z,22
2019-03-13T01:07:01.130Z,20
2019-03-13T01:08:01.093Z,18
2019-03-13T01:09:01.095Z,19
2019-03-13T01:11:01.122Z,18
2019-03-13T01:14:01.094Z,17
2019-03-13T01:15:01.093Z,17
2019-03-13T01:16:01.118Z,18
2019-03-13T01:18:01.093Z,19
2019-03-13T01:19:01.095Z,20
2019-03-13T01:20:01.094Z,21
2019-03-13T01:21:01.118Z,20
2019-03-13T01:22:01.092Z,18
2019-03-13T01:23:01.097Z,17
2019-03-13T01:24:01.096Z,16
2019-03-13T01:26:01.131Z,15
2019-03-13T01:27:01.096Z,16
2019-03-13T01:29:01.096Z,17
2019-03-13T01:30:01.098Z,16
2019-03-13T01:31:01.121Z,17
2019-03-13T01:32:01.094Z,16
2019-03-13T01:33:01.094Z,17
2019-03-13T01:34:01.553Z,16
2019-03-13T01:35:01.094Z,15
2019-03-13T01:36:01.129Z,16
2019-03-13T01:37:01.093Z,15
2019-03-13T01:40:01.129Z,16
2019-03-13T01:41:01.095Z,15
2019-03-13T01:42:01.095Z,18
2019-03-13T01:44:01.133Z,17
2019-03-13T01:46:01.079Z,18
2019-03-13T01:47:01.080Z,19
2019-03-13T01:48:01.079Z,17
2019-03-13T01:49:01.078Z,19
2019-03-13T01:50:01.113Z,18
2019-03-13T01:51:01.084Z,16
2019-03-13T01:52:01.082Z,17
2019-03-13T01:54:01.081Z,15
2019-03-13T01:56:01.124Z,18
2019-03-13T01:57:01.080Z,16
2019-03-13T02:00:01.137Z,18
2019-03-13T02:01:01.080Z,16
2019-03-13T02:05:06.104Z,15
2019-03-13T02:06:01.083Z,16
2019-03-13T02:07:01.083Z,15
2019-03-13T02:08:01.083Z,18
2019-03-13T02:09:01.117Z,17
2019-03-13T02:10:01.085Z,16
2019-03-13T02:11:01.089Z,17
2019-03-13T02:12:01.084Z,21
2019-03-13T02:14:01.086Z,24
2019-03-13T02:15:01.121Z,26
2019-03-13T02:16:01.087Z,24
2019-03-13T02:17:01.091Z,20
2019-03-13T02:18:01.092Z,19
2019-03-13T02:19:01.088Z,16
2019-03-13T02:20:01.090Z,14
2019-03-13T02:22:01.087Z,15
2019-03-13T02:23:01.087Z,12
2019-03-13T02:24:01.087Z,14
2019-03-13T02:26:01.110Z,16
2019-03-13T02:27:01.086Z,18
2019-03-13T02:28:01.087Z,21
2019-03-13T02:29:01.111Z,20
2019-03-13T02:30:01.664Z,21
2019-03-13T02:31:01.086Z,19
2019-03-13T02:33:01.087Z,16
2019-03-13T02:35:01.112Z,15
2019-03-13T02:36:01.096Z,14
2019-03-13T02:38:01.088Z,15
2019-03-13T02:39:01.082Z,13
2019-03-13T02:40:01.090Z,15
2019-03-13T02:42:01.091Z,14
2019-03-13T02:43:01.087Z,15
2019-03-13T02:44:01.111Z,16
2019-03-13T02:45:01.089Z,15
2019-03-13T02:49:01.112Z,14
2019-03-13T02:51:01.055Z,13
2019-03-13T02:53:02.121Z,14
2019-03-13T02:54:01.080Z,15
2019-03-13T02:55:01.090Z,16
2019-03-13T02:56:01.089Z,17
2019-03-13T02:59:01.082Z,15
2019-03-13T03:00:01.090Z,19
2019-03-13T03:01:01.089Z,18
2019-03-13T03:03:01.101Z,17
2019-03-13T03:04:01.123Z,20
2019-03-13T03:05:01.089Z,17
2019-03-13T03:07:01.061Z,16
2019-03-13T03:08:01.063Z,18
2019-03-13T03:09:01.114Z,16
2019-03-13T03:11:01.091Z,18
2019-03-13T03:13:01.100Z,17
2019-03-13T03:15:01.122Z,16
2019-03-13T03:17:01.089Z,17
2019-03-13T03:18:01.092Z,16
2019-03-13T03:19:01.090Z,15
2019-03-13T03:22:01.093Z,14
2019-03-13T03:23:01.121Z,16
2019-03-13T03:25:01.094Z,18
2019-03-13T03:26:01.098Z,16
2019-03-13T03:27:01.090Z,17
2019-03-13T03:30:01.231Z,16
2019-03-13T03:31:01.095Z,17
2019-03-13T03:32:01.107Z,16
2019-03-13T03:33:01.220Z,15
2019-03-13T03:35:01.444Z,16
2019-03-13T03:36:01.095Z,17
2019-03-13T03:39:01.121Z,18
2019-03-13T03:40:01.064Z,17
2019-03-13T03:41:01.581Z,16
2019-03-13T03:42:01.064Z,18
2019-03-13T03:43:01.103Z,19
2019-03-13T03:44:01.132Z,18
2019-03-13T03:45:01.099Z,18
2019-03-13T03:46:01.076Z,19
2019-03-13T03:47:01.097Z,17
2019-03-13T03:51:01.098Z,16
2019-03-13T03:52:02.881Z,15
2019-03-13T03:53:01.111Z,16
2019-03-13T03:54:01.098Z,15
2019-03-13T03:56:01.065Z,16
2019-03-13T04:00:06.080Z,16
2019-03-13T04:09:01.089Z,17
2019-03-13T04:10:01.115Z,18
2019-03-13T04:12:01.110Z,17
2019-03-13T04:13:01.055Z,16
2019-03-13T04:14:01.087Z,14
2019-03-13T04:15:01.085Z,15
2019-03-13T04:17:01.087Z,16
2019-03-13T04:18:01.097Z,17
2019-03-13T04:22:01.102Z,16
2019-03-13T04:23:01.117Z,13
2019-03-13T04:24:01.057Z,12
2019-03-13T04:25:01.059Z,13
2019-03-13T04:26:01.094Z,14
2019-03-13T04:27:01.090Z,15
2019-03-13T04:28:01.121Z,17
2019-03-13T04:29:01.092Z,18
2019-03-13T04:30:01.151Z,16
2019-03-13T04:33:01.128Z,18
2019-03-13T04:34:01.098Z,19
2019-03-13T04:35:01.099Z,20
2019-03-13T04:37:01.097Z,21
2019-03-13T04:38:01.131Z,20
2019-03-13T04:39:01.092Z,19
2019-03-13T04:41:01.095Z,18
2019-03-13T04:43:01.095Z,15
2019-03-13T04:44:01.093Z,16
2019-03-13T04:45:01.095Z,17
2019-03-13T04:47:01.093Z,18
2019-03-13T04:48:01.129Z,21
2019-03-13T04:50:01.096Z,20
2019-03-13T04:51:01.095Z,19
2019-03-13T04:52:01.097Z,18
2019-03-13T04:53:01.097Z,16
2019-03-13T05:00:01.090Z,15
2019-03-13T05:02:01.093Z,16
2019-03-13T05:03:01.081Z,15
2019-03-13T05:04:01.084Z,14
2019-03-13T05:05:01.087Z,16
2019-03-13T05:06:01.077Z,14
2019-03-13T05:07:01.048Z,15
2019-03-13T05:08:01.081Z,17
2019-03-13T05:10:01.083Z,16
2019-03-13T05:11:01.108Z,17
2019-03-13T05:12:01.050Z,15
2019-03-13T05:13:01.088Z,14
2019-03-13T05:15:01.082Z,15
2019-03-13T05:16:01.114Z,16
2019-03-13T05:17:01.081Z,18
2019-03-13T05:18:01.090Z,19
2019-03-13T05:19:01.085Z,18
2019-03-13T05:20:01.077Z,17
2019-03-13T05:21:01.055Z,15
2019-03-13T05:23:01.052Z,12
2019-03-13T05:25:01.107Z,14
2019-03-13T05:26:01.087Z,16
2019-03-13T05:28:01.051Z,19
2019-03-13T05:29:01.054Z,20
2019-03-13T05:30:01.109Z,19
2019-03-13T05:31:01.063Z,17
2019-03-13T05:33:01.094Z,16
2019-03-13T05:34:02.116Z,17
2019-03-13T05:35:01.110Z,18
2019-03-13T05:36:01.054Z,17
2019-03-13T05:37:01.088Z,18
2019-03-13T05:38:01.985Z,19
2019-03-13T05:39:01.062Z,17
2019-03-13T05:40:01.111Z,16
2019-03-13T05:41:01.088Z,17
2019-03-13T05:42:01.088Z,15
2019-03-13T05:44:01.098Z,16
2019-03-13T05:45:01.083Z,18
2019-03-13T05:48:01.066Z,17
2019-03-13T05:50:01.094Z,15
2019-03-13T05:54:06.100Z,16
2019-03-13T05:55:01.095Z,15
2019-03-13T05:56:01.101Z,14
2019-03-13T05:57:01.109Z,15
2019-03-13T05:58:01.096Z,16
2019-03-13T05:59:06.091Z,14
2019-03-13T06:00:01.097Z,18
2019-03-13T06:05:01.093Z,17
2019-03-13T06:06:06.071Z,16
2019-03-13T06:07:01.099Z,17
2019-03-13T06:10:01.066Z,16
2019-03-13T06:11:01.097Z,17
2019-03-13T06:12:01.114Z,16
2019-03-13T06:14:01.191Z,18
2019-03-13T06:15:03.510Z,20
2019-03-13T06:20:01.084Z,18
2019-03-13T06:22:01.082Z,17
2019-03-13T06:23:01.049Z,16
2019-03-13T06:24:01.049Z,15
2019-03-13T06:25:01.087Z,17
2019-03-13T06:26:01.085Z,14
2019-03-13T06:27:01.087Z,13
2019-03-13T06:28:01.051Z,11
2019-03-13T06:30:01.050Z,11
2019-03-13T06:31:01.050Z,12
2019-03-13T06:32:01.083Z,13
2019-03-13T06:33:01.082Z,14
2019-03-13T06:34:01.087Z,15
2019-03-13T06:35:01.088Z,14
2019-03-13T06:36:01.051Z,16
2019-03-13T06:37:01.050Z,17
2019-03-13T06:39:01.083Z,16
2019-03-13T06:41:01.055Z,15
2019-03-13T06:42:01.084Z,17
2019-03-13T06:45:01.083Z,18
2019-03-13T06:48:01.077Z,17
2019-03-13T06:50:01.083Z,16
2019-03-13T06:51:01.085Z,17
2019-03-13T06:52:01.108Z,15
2019-03-13T06:53:01.084Z,16
2019-03-13T06:55:01.085Z,15
2019-03-13T06:56:02.058Z,14
2019-03-13T06:57:01.634Z,15
2019-03-13T06:58:01.055Z,16
2019-03-13T06:59:01.092Z,17
2019-03-13T07:00:01.057Z,19
2019-03-13T07:01:01.056Z,18
2019-03-13T07:02:01.080Z,19
2019-03-13T07:03:01.088Z,20
2019-03-13T07:04:01.091Z,19
2019-03-13T07:07:01.080Z,18
2019-03-13T07:08:01.088Z,17
2019-03-13T07:10:01.155Z,16
2019-03-13T07:12:06.093Z,17
2019-03-13T07:15:01.161Z,16
2019-03-13T07:17:01.085Z,15
2019-03-13T07:18:01.100Z,16
2019-03-13T07:19:01.097Z,18
2019-03-13T07:20:01.098Z,17
2019-03-13T07:21:01.096Z,18
2019-03-13T07:23:01.095Z,17
2019-03-13T07:24:01.096Z,16
2019-03-13T07:25:01.070Z,15
2019-03-13T07:26:01.066Z,16
2019-03-13T07:27:06.064Z,14
2019-03-13T07:28:01.100Z,15
2019-03-13T07:29:11.367Z,16
2019-03-13T07:30:01.068Z,17
2019-03-13T07:33:01.070Z,16
2019-03-13T07:34:01.109Z,15
2019-03-13T07:36:01.100Z,16
2019-03-13T07:37:06.104Z,17
2019-03-13T07:40:01.075Z,18
2019-03-13T07:41:01.067Z,17
2019-03-13T07:42:01.124Z,19
2019-03-13T07:44:01.050Z,20
2019-03-13T07:45:01.053Z,20
2019-03-13T07:46:01.087Z,19
2019-03-13T07:47:01.086Z,18
2019-03-13T07:48:01.084Z,17
2019-03-13T07:49:01.085Z,18
2019-03-13T07:50:01.084Z,17
2019-03-13T07:51:01.061Z,16
2019-03-13T07:53:01.053Z,15
2019-03-13T07:54:01.085Z,16
2019-03-13T07:57:01.089Z,17
2019-03-13T07:58:01.068Z,18
2019-03-13T07:59:01.053Z,17
2019-03-13T08:00:01.053Z,17
2019-03-13T08:01:01.052Z,16
2019-03-13T08:03:01.116Z,17
2019-03-13T08:04:01.087Z,16
2019-03-13T08:05:01.089Z,17
2019-03-13T08:06:01.084Z,16
2019-03-13T08:07:01.084Z,15
2019-03-13T08:08:01.085Z,13
2019-03-13T08:09:01.055Z,15
2019-03-13T08:10:01.084Z,14
2019-03-13T08:11:01.053Z,15
2019-03-13T08:14:01.084Z,16
2019-03-13T08:15:01.085Z,17
2019-03-13T08:16:01.084Z,16
2019-03-13T08:17:01.082Z,17
2019-03-13T08:19:01.805Z,15
2019-03-13T08:20:01.087Z,16
2019-03-13T08:22:01.083Z,15
2019-03-13T08:23:01.110Z,14
2019-03-13T08:24:01.084Z,16
2019-03-13T08:25:01.085Z,15
2019-03-13T08:27:01.059Z,17
2019-03-13T08:28:01.112Z,18
2019-03-13T08:29:01.090Z,17
2019-03-13T08:30:01.085Z,16
2019-03-13T08:31:01.085Z,17
2019-03-13T08:32:01.184Z,18
2019-03-13T08:33:01.077Z,19
2019-03-13T08:34:01.154Z,18
2019-03-13T08:35:01.085Z,20
2019-03-13T08:36:01.086Z,19
2019-03-13T08:39:01.055Z,21
2019-03-13T08:42:01.060Z,22
2019-03-13T08:43:01.089Z,21
2019-03-13T08:44:01.089Z,20
2019-03-13T08:45:01.059Z,18
2019-03-13T08:46:01.115Z,19
2019-03-13T08:47:01.090Z,17
2019-03-13T08:48:01.094Z,15
2019-03-13T08:49:01.094Z,16
2019-03-13T08:51:01.114Z,14
2019-03-13T08:52:01.090Z,15
2019-03-13T08:53:01.058Z,16
2019-03-13T08:54:01.090Z,17
2019-03-13T08:55:01.092Z,15
2019-03-13T08:57:01.094Z,16
2019-03-13T08:58:01.091Z,18
2019-03-13T08:59:01.090Z,17
2019-03-13T09:00:01.062Z,20
2019-03-13T09:01:01.089Z,21
2019-03-13T09:02:01.089Z,20
2019-03-13T09:03:01.090Z,19
2019-03-13T09:05:01.093Z,18
2019-03-13T09:06:01.058Z,19
2019-03-13T09:07:01.094Z,21
2019-03-13T09:08:01.091Z,20
2019-03-13T09:09:01.090Z,19
2019-03-13T09:11:01.095Z,17
2019-03-13T09:12:01.096Z,15
2019-03-13T09:13:01.891Z,16
2019-03-13T09:14:01.059Z,17
2019-03-13T09:15:01.093Z,19
2019-03-13T09:16:01.105Z,17
2019-03-13T09:17:01.091Z,16
2019-03-13T09:18:01.093Z,18
2019-03-13T09:20:01.064Z,17
2019-03-13T09:21:01.124Z,18
2019-03-13T09:23:01.170Z,16
2019-03-13T09:24:01.061Z,15
2019-03-13T09:30:01.096Z,16
2019-03-13T09:31:01.065Z,17
2019-03-13T09:32:01.091Z,19
2019-03-13T09:33:01.097Z,20
2019-03-13T09:34:01.097Z,19
2019-03-13T09:35:01.108Z,17
2019-03-13T09:40:06.078Z,20
2019-03-13T09:41:01.083Z,21
2019-03-13T09:42:01.106Z,20
2019-03-13T09:43:01.051Z,18
2019-03-13T09:44:01.084Z,20
2019-03-13T09:45:01.084Z,17
2019-03-13T09:48:01.086Z,15
2019-03-13T09:49:01.086Z,14
2019-03-13T09:50:02.238Z,15
2019-03-13T09:51:01.089Z,14
2019-03-13T09:52:01.051Z,16
2019-03-13T09:53:01.117Z,18
2019-03-13T09:55:04.328Z,19
2019-03-13T09:56:01.086Z,18
2019-03-13T09:57:01.136Z,19
2019-03-13T09:58:02.184Z,18
2019-03-13T09:59:01.088Z,19
2019-03-13T10:00:01.090Z,18
2019-03-13T10:01:01.089Z,19
2019-03-13T10:02:01.085Z,17
2019-03-13T10:04:01.088Z,15
2019-03-13T10:05:01.087Z,13
2019-03-13T10:07:01.088Z,12
2019-03-13T10:09:01.086Z,14
2019-03-13T10:10:01.091Z,15
2019-03-13T10:11:01.100Z,14
2019-03-13T10:12:01.087Z,17
2019-03-13T10:13:01.086Z,19
2019-03-13T10:14:01.088Z,17
2019-03-13T10:15:01.058Z,17
2019-03-13T10:16:01.055Z,19
2019-03-13T10:17:10.302Z,16
2019-03-13T10:18:01.060Z,15
2019-03-13T10:19:01.090Z,16
2019-03-13T10:20:01.056Z,19
2019-03-13T10:21:01.058Z,17
2019-03-13T10:22:01.088Z,18
2019-03-13T10:23:01.088Z,17
2019-03-13T10:24:01.112Z,19
2019-03-13T10:25:01.164Z,17
2019-03-13T10:26:01.093Z,18
2019-03-13T10:29:01.114Z,17
2019-03-13T10:30:01.090Z,18
2019-03-13T10:31:02.098Z,17
2019-03-13T10:33:01.088Z,16
2019-03-13T10:34:01.059Z,17
2019-03-13T10:36:01.093Z,18
2019-03-13T10:37:01.095Z,20
2019-03-13T10:38:13.052Z,19
2019-03-13T10:39:01.090Z,18
2019-03-13T10:40:01.094Z,17
2019-03-13T10:41:01.059Z,16
2019-03-13T10:42:01.095Z,15
2019-03-13T10:43:01.116Z,16
2019-03-13T10:45:01.092Z,16
2019-03-13T10:50:01.086Z,14
2019-03-13T10:51:01.062Z,15
2019-03-13T10:55:01.123Z,16
2019-03-13T10:56:01.093Z,15
2019-03-13T10:58:01.362Z,17
2019-03-13T11:00:01.096Z,17
2019-03-13T11:02:01.085Z,16
2019-03-13T11:03:01.093Z,14
2019-03-13T11:04:01.094Z,15
2019-03-13T11:05:01.095Z,13
2019-03-13T11:06:01.092Z,14
2019-03-13T11:07:06.088Z,16
2019-03-13T11:09:01.092Z,14
2019-03-13T11:10:01.097Z,15
2019-03-13T11:11:01.102Z,14
2019-03-13T11:12:01.118Z,13
2019-03-13T11:13:01.093Z,15
2019-03-13T11:14:14.324Z,16
2019-03-13T11:15:01.101Z,17
2019-03-13T11:16:01.097Z,16
2019-03-13T11:17:06.061Z,18
2019-03-13T11:18:01.060Z,16
2019-03-13T11:19:01.091Z,18
2019-03-13T11:20:01.112Z,15
2019-03-13T11:21:01.099Z,16
2019-03-13T11:23:01.298Z,17
2019-03-13T11:25:02.120Z,18
2019-03-13T11:27:06.093Z,17
2019-03-13T11:29:01.093Z,16
2019-03-13T11:30:01.062Z,16
2019-03-13T11:31:01.118Z,18
2019-03-13T11:33:01.102Z,19
2019-03-13T11:34:01.100Z,20
2019-03-13T11:35:01.074Z,22
2019-03-13T11:36:01.122Z,21
2019-03-13T11:37:01.096Z,20
2019-03-13T11:38:01.100Z,18
2019-03-13T11:39:01.095Z,16
2019-03-13T11:40:01.098Z,13
2019-03-13T11:42:01.097Z,14
2019-03-13T11:45:01.080Z,17
2019-03-13T11:46:01.083Z,19
2019-03-13T11:47:01.048Z,20
2019-03-13T11:48:01.084Z,21
2019-03-13T11:49:01.081Z,23
2019-03-13T11:50:01.049Z,21
2019-03-13T11:51:01.084Z,20
2019-03-13T11:52:01.119Z,21
2019-03-13T11:53:01.086Z,19
2019-03-13T11:54:01.082Z,17
2019-03-13T11:56:01.089Z,15
2019-03-13T11:57:01.088Z,14
2019-03-13T11:59:01.082Z,15
2019-03-13T12:00:01.099Z,16
2019-03-13T12:02:01.051Z,17
2019-03-13T12:03:06.086Z,16
2019-03-13T12:04:01.083Z,15
2019-03-13T12:05:01.085Z,14
2019-03-13T12:06:01.214Z,15
2019-03-13T12:07:01.083Z,14
2019-03-13T12:08:01.057Z,15
2019-03-13T12:09:01.115Z,17
2019-03-13T12:10:01.086Z,18
2019-03-13T12:13:01.083Z,17
2019-03-13T12:15:01.088Z,17
2019-03-13T12:16:01.082Z,16
2019-03-13T12:19:01.082Z,15
2019-03-13T12:20:01.082Z,14
2019-03-13T12:21:01.088Z,17
2019-03-13T12:22:01.050Z,16
2019-03-13T12:24:01.086Z,14
2019-03-13T12:25:01.104Z,16
2019-03-13T12:26:03.190Z,15
2019-03-13T12:27:01.049Z,17
2019-03-13T12:28:01.084Z,18
2019-03-13T12:29:01.087Z,20
2019-03-13T12:30:01.085Z,18
2019-03-13T12:31:01.084Z,17
2019-03-13T12:32:02.245Z,16
2019-03-13T12:33:06.087Z,17
2019-03-13T12:35:01.084Z,19
2019-03-13T12:38:01.084Z,18
2019-03-13T12:39:01.091Z,16
2019-03-13T12:40:01.076Z,15
2019-03-13T12:41:01.090Z,16
2019-03-13T12:42:01.057Z,15
2019-03-13T12:44:01.091Z,16
2019-03-13T12:45:01.080Z,16
2019-03-13T12:46:01.053Z,15
2019-03-13T12:49:02.113Z,16
2019-03-13T12:51:01.085Z,18
2019-03-13T12:54:01.087Z,17
2019-03-13T12:55:02.366Z,16
2019-03-13T12:56:01.091Z,15
2019-03-13T12:59:01.581Z,16
2019-03-13T13:00:01.089Z,17
2019-03-13T13:02:01.061Z,18
2019-03-13T13:03:01.098Z,19
2019-03-13T13:04:01.089Z,18
2019-03-13T13:06:01.061Z,19
2019-03-13T13:09:01.089Z,21
2019-03-13T13:10:01.069Z,20
2019-03-13T13:11:01.058Z,19
2019-03-13T13:12:01.091Z,20
2019-03-13T13:13:01.091Z,18
2019-03-13T13:15:01.093Z,19
2019-03-13T13:16:01.090Z,18
2019-03-13T13:17:01.090Z,17
2019-03-13T13:20:02.008Z,15
2019-03-13T13:21:01.183Z,16
2019-03-13T13:22:01.088Z,18
2019-03-13T13:25:01.089Z,17
2019-03-13T13:26:01.092Z,15
2019-03-13T13:27:01.090Z,13
2019-03-13T13:28:01.090Z,12
2019-03-13T13:29:01.091Z,11
2019-03-13T13:30:01.089Z,13
2019-03-13T13:31:01.094Z,14
2019-03-13T13:32:01.095Z,16
2019-03-13T13:34:01.094Z,18
2019-03-13T13:35:01.094Z,17
2019-03-13T13:36:01.095Z,16
2019-03-13T13:37:01.092Z,15
2019-03-13T13:38:06.094Z,16
2019-03-13T13:39:01.121Z,14
2019-03-13T13:41:01.094Z,13
2019-03-13T13:45:01.093Z,14
2019-03-13T13:46:01.103Z,15
2019-03-13T13:48:01.092Z,16
2019-03-13T13:49:01.091Z,17
2019-03-13T13:50:01.060Z,16
2019-03-13T13:52:01.376Z,17
2019-03-13T13:53:06.089Z,16
2019-03-13T13:54:01.091Z,15
2019-03-13T13:55:01.061Z,16
2019-03-13T13:58:06.066Z,15
2019-03-13T13:59:01.066Z,17
2019-03-13T14:00:01.093Z,16
2019-03-13T14:02:01.095Z,17
2019-03-13T14:03:01.125Z,18
2019-03-13T14:04:01.099Z,16
2019-03-13T14:06:01.103Z,17
2019-03-13T14:07:01.093Z,16
2019-03-13T14:08:06.097Z,18
2019-03-13T14:10:01.066Z,17
2019-03-13T14:13:01.127Z,15
2019-03-13T14:15:01.100Z,15
2019-03-13T14:16:01.100Z,16
2019-03-13T14:17:01.097Z,18
2019-03-13T14:18:02.734Z,20
2019-03-13T14:19:01.099Z,19
2019-03-13T14:22:01.163Z,17
2019-03-13T14:24:01.125Z,15
2019-03-13T14:25:01.079Z,16
2019-03-13T14:29:01.112Z,17
2019-03-13T14:30:01.085Z,17
2019-03-13T14:33:01.055Z,16
2019-03-13T14:34:01.081Z,15
2019-03-13T14:38:01.053Z,14
2019-03-13T14:39:01.082Z,17
2019-03-13T14:40:01.083Z,16
2019-03-13T14:42:01.084Z,15
2019-03-13T14:43:01.102Z,16
2019-03-13T14:44:01.085Z,15
2019-03-13T14:45:01.085Z,16
2019-03-13T14:46:01.092Z,18
2019-03-13T14:48:01.883Z,19
2019-03-13T14:51:01.090Z,18
2019-03-13T14:52:01.114Z,19
2019-03-13T14:55:01.085Z,20
2019-03-13T14:56:01.054Z,18
2019-03-13T14:58:01.085Z,17
2019-03-13T14:59:01.084Z,21
2019-03-13T15:00:01.088Z,20
2019-03-13T15:02:01.085Z,19
2019-03-13T15:03:01.087Z,18
2019-03-13T15:04:01.091Z,15
2019-03-13T15:07:01.088Z,16
2019-03-13T15:08:01.090Z,15
2019-03-13T15:09:01.089Z,16
2019-03-13T15:10:01.088Z,17
2019-03-13T15:12:01.110Z,16
2019-03-13T15:13:01.055Z,18
2019-03-13T15:15:01.089Z,18
2019-03-13T15:16:01.088Z,17
2019-03-13T15:17:01.112Z,19
2019-03-13T15:18:01.089Z,17
2019-03-13T15:19:01.087Z,18
2019-03-13T15:21:01.090Z,17
2019-03-13T15:22:01.122Z,16
2019-03-13T15:23:01.091Z,18
2019-03-13T15:25:01.094Z,17
2019-03-13T15:26:01.093Z,18
2019-03-13T15:27:01.127Z,21
2019-03-13T15:29:01.093Z,23
2019-03-13T15:30:01.093Z,23
2019-03-13T15:31:01.485Z,24
2019-03-13T15:32:01.139Z,23
2019-03-13T15:33:01.061Z,21
2019-03-13T15:34:01.062Z,19
2019-03-13T15:35:01.091Z,18
2019-03-13T15:36:01.065Z,16
2019-03-13T15:40:01.095Z,17
2019-03-13T15:42:01.135Z,16
2019-03-13T15:45:02.120Z,16
2019-03-13T15:47:01.128Z,18
2019-03-13T15:48:01.098Z,17
2019-03-13T15:49:01.091Z,18
2019-03-13T15:51:02.120Z,17
2019-03-13T15:52:01.124Z,15
2019-03-13T15:53:01.095Z,17
2019-03-13T15:54:02.024Z,15
2019-03-13T15:58:01.099Z,14
2019-03-13T15:59:01.095Z,16
2019-03-13T16:00:01.096Z,18
2019-03-13T16:01:06.102Z,16
2019-03-13T16:03:01.104Z,17
2019-03-13T16:04:01.094Z,16
2019-03-13T16:05:01.093Z,14
2019-03-13T16:06:01.063Z,15
2019-03-13T16:08:01.060Z,16
2019-03-13T16:09:01.092Z,17
2019-03-13T16:10:02.934Z,18
2019-03-13T16:12:01.084Z,17
2019-03-13T16:13:01.061Z,15
2019-03-13T16:14:01.094Z,14
2019-03-13T16:15:01.093Z,15
2019-03-13T16:16:01.128Z,16
2019-03-13T16:18:01.106Z,18
2019-03-13T16:19:01.063Z,20
2019-03-13T16:20:01.095Z,19
2019-03-13T16:21:01.118Z,18
2019-03-13T16:24:01.099Z,16
2019-03-13T16:27:01.078Z,17
2019-03-13T16:28:01.082Z,16
2019-03-13T16:29:01.084Z,15
2019-03-13T16:30:01.057Z,15
2019-03-13T16:31:01.047Z,17
2019-03-13T16:32:01.104Z,18
2019-03-13T16:33:01.078Z,19
2019-03-13T16:34:06.080Z,21
2019-03-13T16:35:01.078Z,22
2019-03-13T16:37:01.143Z,20
2019-03-13T16:39:01.047Z,19
2019-03-13T16:40:01.118Z,18
2019-03-13T16:41:01.082Z,17
2019-03-13T16:42:01.093Z,19
2019-03-13T16:45:01.083Z,18
2019-03-13T16:46:01.084Z,19
2019-03-13T16:48:01.081Z,17
2019-03-13T16:49:01.093Z,18
2019-03-13T16:50:01.085Z,19
2019-03-13T16:51:01.104Z,18
2019-03-13T16:52:01.049Z,17
2019-03-13T16:54:01.097Z,13
2019-03-13T16:55:01.049Z,14
2019-03-13T16:56:01.049Z,15
2019-03-13T16:57:01.080Z,17
2019-03-13T16:58:01.085Z,18
2019-03-13T16:59:01.049Z,19
2019-03-13T17:00:01.599Z,20
2019-03-13T17:01:01.082Z,19
2019-03-13T17:02:01.081Z,17
2019-03-13T17:04:01.081Z,18
2019-03-13T17:05:01.082Z,19
2019-03-13T17:06:01.082Z,21
2019-03-13T17:08:01.964Z,20
2019-03-13T17:09:01.052Z,21
2019-03-13T17:10:01.114Z,19
2019-03-13T17:11:01.087Z,17
2019-03-13T17:12:01.085Z,18
2019-03-13T17:13:01.085Z,20
2019-03-13T17:14:01.085Z,18
2019-03-13T17:15:01.084Z,20
2019-03-13T17:16:01.085Z,19
2019-03-13T17:17:01.083Z,16
2019-03-13T17:18:01.054Z,17
2019-03-13T17:20:01.053Z,16
2019-03-13T17:22:01.089Z,18
2019-03-13T17:23:01.085Z,17
2019-03-13T17:26:01.089Z,21
2019-03-13T17:27:01.086Z,20
2019-03-13T17:28:01.085Z,19
2019-03-13T17:29:01.103Z,18
2019-03-13T17:30:01.089Z,18
2019-03-13T17:31:01.984Z,15
2019-03-13T17:34:01.084Z,17
2019-03-13T17:35:01.094Z,16
2019-03-13T17:38:01.091Z,17
2019-03-13T17:39:01.053Z,16
2019-03-13T17:43:01.087Z,14
2019-03-13T17:45:01.126Z,14
2019-03-13T17:46:01.061Z,13
2019-03-13T17:47:01.102Z,14
2019-03-13T17:49:01.090Z,15
2019-03-13T17:50:01.117Z,16
2019-03-13T17:51:01.062Z,17
2019-03-13T17:52:01.096Z,16
2019-03-13T17:56:01.104Z,17
2019-03-13T17:57:06.105Z,18
2019-03-13T17:58:01.101Z,20
2019-03-13T18:00:01.100Z,23
2019-03-13T18:01:01.099Z,21
2019-03-13T18:02:01.127Z,20
2019-03-13T18:03:01.102Z,19
2019-03-13T18:04:01.106Z,18
2019-03-13T18:05:01.066Z,16
2019-03-13T18:09:03.941Z,17
2019-03-13T18:10:01.100Z,16
2019-03-13T18:13:02.127Z,18
2019-03-13T18:15:01.095Z,18
2019-03-13T18:16:01.100Z,20
2019-03-13T18:17:06.099Z,19
2019-03-13T18:18:01.064Z,20
2019-03-13T18:19:01.077Z,18
2019-03-13T18:21:01.101Z,16
2019-03-13T18:23:01.096Z,15
2019-03-13T18:25:01.126Z,16
2019-03-13T18:26:01.096Z,15
2019-03-13T18:27:01.096Z,16
2019-03-13T18:28:01.098Z,14
2019-03-13T18:29:01.098Z,16
2019-03-13T18:32:01.083Z,19
2019-03-13T18:33:01.050Z,17
2019-03-13T18:34:01.081Z,19
2019-03-13T18:35:01.081Z,17
2019-03-13T18:36:01.118Z,18
2019-03-13T18:40:01.090Z,17
2019-03-13T18:41:01.121Z,15
2019-03-13T18:42:01.084Z,13
2019-03-13T18:43:01.083Z,15
2019-03-13T18:44:01.084Z,14
2019-03-13T18:45:01.082Z,17
2019-03-13T18:48:01.080Z,16
2019-03-13T18:49:01.052Z,19
2019-03-13T18:50:01.085Z,18
2019-03-13T18:51:01.090Z,20
2019-03-13T18:53:01.108Z,18
2019-03-13T18:55:01.132Z,17
2019-03-13T18:56:01.086Z,15
2019-03-13T18:58:01.087Z,16
2019-03-13T18:59:01.052Z,14
2019-03-13T19:00:01.304Z,16
2019-03-13T19:01:01.106Z,18
2019-03-13T19:02:01.084Z,17
2019-03-13T19:04:01.086Z,19
2019-03-13T19:05:01.085Z,18
2019-03-13T19:06:01.114Z,16
2019-03-13T19:07:01.084Z,18
2019-03-13T19:08:01.054Z,17
2019-03-13T19:09:01.054Z,16
2019-03-13T19:10:01.920Z,15
2019-03-13T19:11:01.120Z,17
2019-03-13T19:12:01.087Z,16
2019-03-13T19:13:01.091Z,17
2019-03-13T19:14:01.091Z,16
2019-03-13T19:15:02.130Z,18
2019-03-13T19:16:01.090Z,16
2019-03-13T19:18:01.397Z,15
2019-03-13T19:19:01.091Z,16
2019-03-13T19:20:01.092Z,15
2019-03-13T19:21:01.082Z,16
2019-03-13T19:23:01.121Z,17
2019-03-13T19:26:01.116Z,16
2019-03-13T19:28:01.059Z,15
2019-03-13T19:29:01.626Z,14
2019-03-13T19:30:01.093Z,13
2019-03-13T19:31:01.082Z,14
2019-03-13T19:33:01.105Z,15
2019-03-13T19:34:01.060Z,16
2019-03-13T19:35:01.096Z,15
2019-03-13T19:36:01.117Z,16
2019-03-13T19:38:01.102Z,15
2019-03-13T19:39:01.093Z,16
2019-03-13T19:40:01.093Z,17
2019-03-13T19:41:01.099Z,18
2019-03-13T19:42:01.091Z,16
2019-03-13T19:43:01.096Z,18
2019-03-13T19:44:01.128Z,17
2019-03-13T19:45:01.096Z,16
2019-03-13T19:47:01.093Z,17
2019-03-13T19:50:01.128Z,18
2019-03-13T19:51:01.093Z,17
2019-03-13T19:52:01.094Z,18
2019-03-13T19:54:01.093Z,17
2019-03-13T19:55:01.121Z,16
2019-03-13T19:56:01.094Z,17
2019-03-13T19:57:01.094Z,16
2019-03-13T19:59:01.101Z,17
2019-03-13T20:00:01.099Z,17
2019-03-13T20:03:01.071Z,15
2019-03-13T20:04:01.574Z,14
2019-03-13T20:05:01.111Z,15